Terminal Aerodrome Forecast
Issued by NWS Pueblo, CO

Home | Current Version | Previous Version | Text Only | Print | Product List | Glossary On
Versions: 1 2 3 4 5 6 7 8 9 10 11 12 13 14 15 16 17 18 19 20 21 22 23 24 25 26 27 28 29
000
FTUS45 KPUB 290626 AAA
TAFALS
TAF AMD
KALS 290626Z 2906/3006 VRB06KT P6SM BKN005 BKN070
      TEMPO 2910/2914 P6SM SCT005 BKN070
     FM291400 VRB06KT P6SM SCT012 BKN070
     FM291600 23007KT P6SM SCT050 BKN120
     FM292100 25011KT P6SM VCTS SCT045CB BKN100
      TEMPO 2922/3001 4SM TSRA BKN035CB=

USA.gov is the U.S. government's official web portal to all federal, state and local government web resources and services.